Terminal Aerodrome Forecast
Issued by NWS

Home | Current Version | Previous Version | Text Only | Print | Product List | Glossary On
Versions: 1 2 3 4 5 6 7 8 9 10 11 12 13 14 15 16 17 18 19 20 21 22 23 24 25 26 27 28 29 30 31 32 33 34 35
974
FTUS42 KKEY 110358 AAG
TAFMTH
TAF AMD
KMTH 110358Z 1104/1124 05013G21KT P6SM -RA VCSH SCT011 BKN045
      TEMPO 1104/1105 3SM +RA BR BKN009
     FM110500 07013G21KT P6SM -RA VCSH BKN020
     FM110900 07010G16KT P6SM -RA VCSH BKN020
     FM111500 10010KT P6SM BKN050=

USA.gov is the U.S. government's official web portal to all federal, state and local government web resources and services.